sensor_id;sensor_type;location;lat;lon;timestamp;P1;durP1;ratioP1;P2;durP2;ratioP2
39066;SDS011;24821;51.988;6.020;2023-01-30T00:01:40;15.60;;;12.35;;
39066;SDS011;24821;51.988;6.020;2023-01-30T00:04:07;24.80;;;12.18;;
39066;SDS011;24821;51.988;6.020;2023-01-30T00:06:36;19.35;;;13.88;;
39066;SDS011;24821;51.988;6.020;2023-01-30T00:09:02;15.05;;;12.07;;
39066;SDS011;24821;51.988;6.020;2023-01-30T00:11:28;17.20;;;11.02;;
39066;SDS011;24821;51.988;6.020;2023-01-30T00:13:55;15.77;;;11.07;;
39066;SDS011;24821;51.988;6.020;2023-01-30T00:16:21;30.25;;;13.93;;
39066;SDS011;24821;51.988;6.020;2023-01-30T00:18:47;33.58;;;14.93;;
39066;SDS011;24821;51.988;6.020;2023-01-30T00:21:13;13.75;;;11.60;;
39066;SDS011;24821;51.988;6.020;2023-01-30T00:23:39;21.15;;;15.15;;
39066;SDS011;24821;51.988;6.020;2023-01-30T00:26:05;24.08;;;13.68;;
39066;SDS011;24821;51.988;6.020;2023-01-30T00:28:31;19.13;;;12.07;;
39066;SDS011;24821;51.988;6.020;2023-01-30T00:30:57;16.13;;;11.77;;
39066;SDS011;24821;51.988;6.020;2023-01-30T00:33:24;20.27;;;13.75;;
39066;SDS011;24821;51.988;6.020;2023-01-30T00:35:51;25.08;;;14.65;;
39066;SDS011;24821;51.988;6.020;2023-01-30T00:38:18;24.98;;;11.98;;
39066;SDS011;24821;51.988;6.020;2023-01-30T00:40:45;23.55;;;12.48;;
39066;SDS011;24821;51.988;6.020;2023-01-30T00:43:11;24.23;;;13.20;;
39066;SDS011;24821;51.988;6.020;2023-01-30T00:45:56;19.42;;;11.95;;
39066;SDS011;24821;51.988;6.020;2023-01-30T00:48:41;18.63;;;12.23;;
39066;SDS011;24821;51.988;6.020;2023-01-30T00:51:06;17.77;;;13.50;;
39066;SDS011;24821;51.988;6.020;2023-01-30T00:53:32;19.80;;;13.23;;
39066;SDS011;24821;51.988;6.020;2023-01-30T00:55:58;17.67;;;12.02;;
39066;SDS011;24821;51.988;6.020;2023-01-30T00:58:23;18.40;;;13.45;;
39066;SDS011;24821;51.988;6.020;2023-01-30T01:00:50;22.00;;;13.13;;
39066;SDS011;24821;51.988;6.020;2023-01-30T01:03:16;18.27;;;13.32;;
39066;SDS011;24821;51.988;6.020;2023-01-30T01:05:42;14.98;;;12.88;;
39066;SDS011;24821;51.988;6.020;2023-01-30T01:08:09;18.45;;;11.90;;
39066;SDS011;24821;51.988;6.020;2023-01-30T01:10:35;20.40;;;12.00;;
39066;SDS011;24821;51.988;6.020;2023-01-30T01:13:01;16.63;;;13.15;;
39066;SDS011;24821;51.988;6.020;2023-01-30T01:15:27;22.52;;;13.77;;
39066;SDS011;24821;51.988;6.020;2023-01-30T01:17:53;21.10;;;12.75;;
39066;SDS011;24821;51.988;6.020;2023-01-30T01:20:19;20.00;;;14.38;;
39066;SDS011;24821;51.988;6.020;2023-01-30T01:22:46;21.27;;;13.73;;
39066;SDS011;24821;51.988;6.020;2023-01-30T01:25:16;14.88;;;11.18;;
39066;SDS011;24821;51.988;6.020;2023-01-30T01:27:43;19.98;;;12.88;;
39066;SDS011;24821;51.988;6.020;2023-01-30T01:30:09;15.57;;;12.23;;
39066;SDS011;24821;51.988;6.020;2023-01-30T01:32:35;20.08;;;15.35;;
39066;SDS011;24821;51.988;6.020;2023-01-30T01:35:01;19.25;;;12.60;;
39066;SDS011;24821;51.988;6.020;2023-01-30T01:37:26;19.50;;;12.98;;
39066;SDS011;24821;51.988;6.020;2023-01-30T01:39:52;16.15;;;13.50;;
39066;SDS011;24821;51.988;6.020;2023-01-30T01:42:36;16.23;;;11.38;;
39066;SDS011;24821;51.988;6.020;2023-01-30T01:47:38;16.40;;;12.50;;
39066;SDS011;24821;51.988;6.020;2023-01-30T01:50:13;16.33;;;13.43;;
39066;SDS011;24821;51.988;6.020;2023-01-30T01:52:42;25.20;;;13.70;;
39066;SDS011;24821;51.988;6.020;2023-01-30T01:55:09;23.20;;;13.80;;
39066;SDS011;24821;51.988;6.020;2023-01-30T01:57:38;18.45;;;13.32;;
39066;SDS011;24821;51.988;6.020;2023-01-30T02:02:46;18.30;;;13.90;;
39066;SDS011;24821;51.988;6.020;2023-01-30T02:05:16;23.60;;;13.43;;
39066;SDS011;24821;51.988;6.020;2023-01-30T02:07:56;13.93;;;10.90;;
39066;SDS011;24821;51.988;6.020;2023-01-30T02:13:22;35.83;;;14.63;;
39066;SDS011;24821;51.988;6.020;2023-01-30T02:15:49;14.27;;;12.70;;
39066;SDS011;24821;51.988;6.020;2023-01-30T02:18:15;14.52;;;11.18;;
39066;SDS011;24821;51.988;6.020;2023-01-30T02:20:47;22.63;;;13.77;;
39066;SDS011;24821;51.988;6.020;2023-01-30T02:34:58;28.70;;;14.05;;
39066;SDS011;24821;51.988;6.020;2023-01-30T02:43:04;13.75;;;10.23;;
39066;SDS011;24821;51.988;6.020;2023-01-30T02:48:45;12.70;;;9.07;;
39066;SDS011;24821;51.988;6.020;2023-01-30T02:51:27;13.73;;;9.60;;
39066;SDS011;24821;51.988;6.020;2023-01-30T02:53:55;11.68;;;8.60;;
39066;SDS011;24821;51.988;6.020;2023-01-30T02:56:22;9.30;;;7.95;;
39066;SDS011;24821;51.988;6.020;2023-01-30T02:58:48;13.55;;;8.00;;
39066;SDS011;24821;51.988;6.020;2023-01-30T03:01:29;9.50;;;7.60;;
39066;SDS011;24821;51.988;6.020;2023-01-30T03:17:24;8.65;;;7.00;;
39066;SDS011;24821;51.988;6.020;2023-01-30T03:19:52;8.68;;;6.07;;
39066;SDS011;24821;51.988;6.020;2023-01-30T03:22:19;7.55;;;5.70;;
39066;SDS011;24821;51.988;6.020;2023-01-30T03:24:46;6.60;;;4.97;;
39066;SDS011;24821;51.988;6.020;2023-01-30T03:27:13;7.00;;;4.70;;
39066;SDS011;24821;51.988;6.020;2023-01-30T03:29:39;8.02;;;4.70;;
39066;SDS011;24821;51.988;6.020;2023-01-30T03:32:04;7.30;;;5.13;;
39066;SDS011;24821;51.988;6.020;2023-01-30T03:34:31;6.25;;;5.50;;
39066;SDS011;24821;51.988;6.020;2023-01-30T03:36:56;5.38;;;4.68;;
39066;SDS011;24821;51.988;6.020;2023-01-30T03:39:22;11.20;;;5.95;;
39066;SDS011;24821;51.988;6.020;2023-01-30T03:41:48;4.65;;;3.88;;
39066;SDS011;24821;51.988;6.020;2023-01-30T03:44:14;6.05;;;4.70;;
39066;SDS011;24821;51.988;6.020;2023-01-30T03:46:40;9.98;;;4.57;;
39066;SDS011;24821;51.988;6.020;2023-01-30T03:49:05;7.60;;;4.70;;
39066;SDS011;24821;51.988;6.020;2023-01-30T03:51:31;8.25;;;4.95;;
39066;SDS011;24821;51.988;6.020;2023-01-30T03:53:56;4.15;;;3.75;;
39066;SDS011;24821;51.988;6.020;2023-01-30T03:56:22;3.88;;;3.22;;
39066;SDS011;24821;51.988;6.020;2023-01-30T03:58:47;4.95;;;4.45;;
39066;SDS011;24821;51.988;6.020;2023-01-30T04:01:13;6.22;;;4.40;;
39066;SDS011;24821;51.988;6.020;2023-01-30T04:03:39;4.65;;;4.28;;
39066;SDS011;24821;51.988;6.020;2023-01-30T04:06:04;4.72;;;4.18;;
39066;SDS011;24821;51.988;6.020;2023-01-30T04:08:30;3.88;;;3.22;;
39066;SDS011;24821;51.988;6.020;2023-01-30T04:10:55;7.60;;;3.80;;
39066;SDS011;24821;51.988;6.020;2023-01-30T04:13:21;5.43;;;3.97;;
39066;SDS011;24821;51.988;6.020;2023-01-30T04:15:46;7.07;;;4.53;;
39066;SDS011;24821;51.988;6.020;2023-01-30T04:18:12;6.28;;;3.65;;
39066;SDS011;24821;51.988;6.020;2023-01-30T04:20:38;3.78;;;3.47;;
39066;SDS011;24821;51.988;6.020;2023-01-30T04:23:03;4.25;;;3.83;;
39066;SDS011;24821;51.988;6.020;2023-01-30T04:25:29;4.40;;;4.00;;
39066;SDS011;24821;51.988;6.020;2023-01-30T04:27:54;3.80;;;3.45;;
39066;SDS011;24821;51.988;6.020;2023-01-30T04:30:20;5.28;;;3.63;;
39066;SDS011;24821;51.988;6.020;2023-01-30T04:32:45;10.90;;;4.10;;
39066;SDS011;24821;51.988;6.020;2023-01-30T04:35:11;9.73;;;4.40;;
39066;SDS011;24821;51.988;6.020;2023-01-30T04:37:37;5.35;;;3.38;;
39066;SDS011;24821;51.988;6.020;2023-01-30T04:40:03;4.10;;;3.17;;
39066;SDS011;24821;51.988;6.020;2023-01-30T04:42:29;5.53;;;4.00;;
39066;SDS011;24821;51.988;6.020;2023-01-30T04:44:54;7.07;;;4.45;;
39066;SDS011;24821;51.988;6.020;2023-01-30T04:47:20;3.03;;;2.78;;
39066;SDS011;24821;51.988;6.020;2023-01-30T04:49:45;11.45;;;3.90;;
39066;SDS011;24821;51.988;6.020;2023-01-30T04:52:11;5.28;;;4.20;;
39066;SDS011;24821;51.988;6.020;2023-01-30T04:54:36;6.40;;;3.58;;
39066;SDS011;24821;51.988;6.020;2023-01-30T04:57:02;8.88;;;3.63;;
39066;SDS011;24821;51.988;6.020;2023-01-30T04:59:28;5.35;;;3.78;;
39066;SDS011;24821;51.988;6.020;2023-01-30T05:01:54;5.13;;;4.13;;
39066;SDS011;24821;51.988;6.020;2023-01-30T05:04:19;3.13;;;2.78;;
39066;SDS011;24821;51.988;6.020;2023-01-30T05:06:45;7.78;;;4.43;;
39066;SDS011;24821;51.988;6.020;2023-01-30T05:09:10;5.20;;;3.65;;
39066;SDS011;24821;51.988;6.020;2023-01-30T05:11:36;4.65;;;3.67;;
39066;SDS011;24821;51.988;6.020;2023-01-30T05:14:02;4.10;;;3.33;;
39066;SDS011;24821;51.988;6.020;2023-01-30T05:16:27;4.95;;;3.45;;
39066;SDS011;24821;51.988;6.020;2023-01-30T05:18:53;5.00;;;3.85;;
39066;SDS011;24821;51.988;6.020;2023-01-30T05:21:23;4.97;;;3.35;;
39066;SDS011;24821;51.988;6.020;2023-01-30T05:23:52;4.70;;;3.17;;
39066;SDS011;24821;51.988;6.020;2023-01-30T05:26:17;4.25;;;3.08;;
39066;SDS011;24821;51.988;6.020;2023-01-30T05:28:43;6.80;;;2.88;;
39066;SDS011;24821;51.988;6.020;2023-01-30T05:31:14;4.82;;;2.95;;
39066;SDS011;24821;51.988;6.020;2023-01-30T05:33:41;5.70;;;3.65;;
39066;SDS011;24821;51.988;6.020;2023-01-30T05:36:06;2.72;;;2.20;;
39066;SDS011;24821;51.988;6.020;2023-01-30T05:38:37;3.83;;;2.65;;
39066;SDS011;24821;51.988;6.020;2023-01-30T05:41:04;2.15;;;2.00;;
39066;SDS011;24821;51.988;6.020;2023-01-30T05:43:31;12.00;;;3.35;;
39066;SDS011;24821;51.988;6.020;2023-01-30T05:45:58;2.75;;;2.28;;
39066;SDS011;24821;51.988;6.020;2023-01-30T05:48:25;8.32;;;2.80;;
39066;SDS011;24821;51.988;6.020;2023-01-30T05:50:52;7.63;;;2.72;;
39066;SDS011;24821;51.988;6.020;2023-01-30T05:53:19;3.25;;;2.80;;
39066;SDS011;24821;51.988;6.020;2023-01-30T05:55:46;2.63;;;2.42;;
39066;SDS011;24821;51.988;6.020;2023-01-30T05:58:18;11.55;;;3.22;;
39066;SDS011;24821;51.988;6.020;2023-01-30T06:00:43;3.17;;;2.42;;
39066;SDS011;24821;51.988;6.020;2023-01-30T06:03:09;2.35;;;2.15;;
39066;SDS011;24821;51.988;6.020;2023-01-30T06:05:36;3.33;;;2.47;;
39066;SDS011;24821;51.988;6.020;2023-01-30T06:08:02;1.65;;;1.60;;
39066;SDS011;24821;51.988;6.020;2023-01-30T06:10:27;8.80;;;3.15;;
39066;SDS011;24821;51.988;6.020;2023-01-30T06:12:53;4.18;;;1.50;;
39066;SDS011;24821;51.988;6.020;2023-01-30T06:15:18;11.20;;;2.65;;
39066;SDS011;24821;51.988;6.020;2023-01-30T06:17:44;5.20;;;2.08;;
39066;SDS011;24821;51.988;6.020;2023-01-30T06:20:10;4.85;;;2.15;;
39066;SDS011;24821;51.988;6.020;2023-01-30T06:22:36;2.60;;;1.70;;
39066;SDS011;24821;51.988;6.020;2023-01-30T06:25:02;11.32;;;2.78;;
39066;SDS011;24821;51.988;6.020;2023-01-30T06:27:28;5.50;;;1.60;;
39066;SDS011;24821;51.988;6.020;2023-01-30T06:29:54;4.43;;;1.77;;
39066;SDS011;24821;51.988;6.020;2023-01-30T06:32:19;2.55;;;1.70;;
39066;SDS011;24821;51.988;6.020;2023-01-30T06:34:45;1.88;;;1.58;;
39066;SDS011;24821;51.988;6.020;2023-01-30T06:37:10;5.30;;;1.70;;
39066;SDS011;24821;51.988;6.020;2023-01-30T06:39:36;5.80;;;2.00;;
39066;SDS011;24821;51.988;6.020;2023-01-30T06:42:01;2.72;;;1.88;;
39066;SDS011;24821;51.988;6.020;2023-01-30T06:44:27;4.05;;;2.20;;
39066;SDS011;24821;51.988;6.020;2023-01-30T06:46:53;1.83;;;1.60;;
39066;SDS011;24821;51.988;6.020;2023-01-30T06:49:18;4.25;;;1.48;;
39066;SDS011;24821;51.988;6.020;2023-01-30T06:51:44;4.35;;;1.75;;
39066;SDS011;24821;51.988;6.020;2023-01-30T06:54:09;8.30;;;2.72;;
39066;SDS011;24821;51.988;6.020;2023-01-30T06:56:35;5.78;;;2.55;;
39066;SDS011;24821;51.988;6.020;2023-01-30T06:59:00;2.67;;;1.42;;
39066;SDS011;24821;51.988;6.020;2023-01-30T07:01:26;2.03;;;1.55;;
39066;SDS011;24821;51.988;6.020;2023-01-30T07:03:51;7.45;;;2.03;;
39066;SDS011;24821;51.988;6.020;2023-01-30T07:06:17;6.07;;;2.72;;
39066;SDS011;24821;51.988;6.020;2023-01-30T07:08:43;3.15;;;1.88;;
39066;SDS011;24821;51.988;6.020;2023-01-30T07:11:08;1.17;;;1.08;;
39066;SDS011;24821;51.988;6.020;2023-01-30T07:13:34;6.15;;;2.78;;
39066;SDS011;24821;51.988;6.020;2023-01-30T07:16:00;3.25;;;1.77;;
39066;SDS011;24821;51.988;6.020;2023-01-30T07:18:25;5.68;;;1.25;;
39066;SDS011;24821;51.988;6.020;2023-01-30T07:20:51;1.55;;;1.45;;
39066;SDS011;24821;51.988;6.020;2023-01-30T07:23:16;10.52;;;2.53;;
39066;SDS011;24821;51.988;6.020;2023-01-30T07:25:42;7.20;;;2.42;;
39066;SDS011;24821;51.988;6.020;2023-01-30T07:28:08;1.67;;;1.58;;
39066;SDS011;24821;51.988;6.020;2023-01-30T07:30:34;2.88;;;2.33;;
39066;SDS011;24821;51.988;6.020;2023-01-30T07:33:00;3.08;;;2.25;;
39066;SDS011;24821;51.988;6.020;2023-01-30T07:35:28;3.58;;;2.53;;
39066;SDS011;24821;51.988;6.020;2023-01-30T07:37:58;5.45;;;2.80;;
39066;SDS011;24821;51.988;6.020;2023-01-30T07:40:24;8.13;;;4.13;;
39066;SDS011;24821;51.988;6.020;2023-01-30T07:43:01;8.98;;;2.72;;
39066;SDS011;24821;51.988;6.020;2023-01-30T07:45:30;4.10;;;2.80;;
39066;SDS011;24821;51.988;6.020;2023-01-30T07:48:00;5.03;;;2.15;;
39066;SDS011;24821;51.988;6.020;2023-01-30T07:50:26;8.38;;;1.95;;
39066;SDS011;24821;51.988;6.020;2023-01-30T07:52:51;3.53;;;2.47;;
39066;SDS011;24821;51.988;6.020;2023-01-30T07:55:17;2.53;;;1.75;;
39066;SDS011;24821;51.988;6.020;2023-01-30T07:57:42;22.38;;;4.93;;
39066;SDS011;24821;51.988;6.020;2023-01-30T08:00:08;3.38;;;2.40;;
39066;SDS011;24821;51.988;6.020;2023-01-30T08:02:35;8.65;;;1.65;;
39066;SDS011;24821;51.988;6.020;2023-01-30T08:05:00;8.75;;;2.38;;
39066;SDS011;24821;51.988;6.020;2023-01-30T08:07:26;5.03;;;2.40;;
39066;SDS011;24821;51.988;6.020;2023-01-30T08:09:52;5.60;;;2.45;;
39066;SDS011;24821;51.988;6.020;2023-01-30T08:12:17;10.55;;;3.85;;
39066;SDS011;24821;51.988;6.020;2023-01-30T08:14:43;7.45;;;2.97;;
39066;SDS011;24821;51.988;6.020;2023-01-30T08:17:08;5.20;;;2.53;;
39066;SDS011;24821;51.988;6.020;2023-01-30T08:19:34;1.90;;;1.80;;
39066;SDS011;24821;51.988;6.020;2023-01-30T08:21:59;15.18;;;3.03;;
39066;SDS011;24821;51.988;6.020;2023-01-30T08:24:25;1.77;;;1.52;;
39066;SDS011;24821;51.988;6.020;2023-01-30T08:26:50;8.68;;;2.95;;
39066;SDS011;24821;51.988;6.020;2023-01-30T08:29:18;6.35;;;2.22;;
39066;SDS011;24821;51.988;6.020;2023-01-30T08:31:44;13.70;;;3.78;;
39066;SDS011;24821;51.988;6.020;2023-01-30T08:34:09;5.97;;;2.72;;
39066;SDS011;24821;51.988;6.020;2023-01-30T08:36:35;6.63;;;2.53;;
39066;SDS011;24821;51.988;6.020;2023-01-30T08:39:01;2.05;;;1.58;;
39066;SDS011;24821;51.988;6.020;2023-01-30T08:41:26;2.67;;;2.47;;
39066;SDS011;24821;51.988;6.020;2023-01-30T08:43:52;9.98;;;3.05;;
39066;SDS011;24821;51.988;6.020;2023-01-30T08:46:18;4.53;;;2.50;;
39066;SDS011;24821;51.988;6.020;2023-01-30T08:48:45;15.10;;;3.70;;
39066;SDS011;24821;51.988;6.020;2023-01-30T08:51:11;3.03;;;2.72;;
39066;SDS011;24821;51.988;6.020;2023-01-30T08:53:37;2.92;;;2.20;;
39066;SDS011;24821;51.988;6.020;2023-01-30T08:56:02;5.47;;;2.85;;
39066;SDS011;24821;51.988;6.020;2023-01-30T08:58:28;7.78;;;2.72;;
39066;SDS011;24821;51.988;6.020;2023-01-30T09:00:54;9.02;;;3.15;;
39066;SDS011;24821;51.988;6.020;2023-01-30T09:03:19;6.40;;;2.53;;
39066;SDS011;24821;51.988;6.020;2023-01-30T09:05:45;4.47;;;3.08;;
39066;SDS011;24821;51.988;6.020;2023-01-30T09:08:11;16.00;;;5.88;;
39066;SDS011;24821;51.988;6.020;2023-01-30T09:10:37;13.15;;;8.02;;
39066;SDS011;24821;51.988;6.020;2023-01-30T09:13:03;4.32;;;2.67;;
39066;SDS011;24821;51.988;6.020;2023-01-30T09:15:29;4.38;;;2.65;;
39066;SDS011;24821;51.988;6.020;2023-01-30T09:17:56;5.00;;;3.30;;
39066;SDS011;24821;51.988;6.020;2023-01-30T09:20:22;2.45;;;2.28;;
39066;SDS011;24821;51.988;6.020;2023-01-30T09:22:49;4.70;;;3.42;;
39066;SDS011;24821;51.988;6.020;2023-01-30T09:25:14;3.65;;;2.88;;
39066;SDS011;24821;51.988;6.020;2023-01-30T09:27:40;2.28;;;2.03;;
39066;SDS011;24821;51.988;6.020;2023-01-30T09:30:08;5.95;;;3.78;;
39066;SDS011;24821;51.988;6.020;2023-01-30T09:32:34;14.75;;;3.42;;
39066;SDS011;24821;51.988;6.020;2023-01-30T09:35:01;11.30;;;3.38;;
39066;SDS011;24821;51.988;6.020;2023-01-30T09:37:27;6.43;;;2.10;;
39066;SDS011;24821;51.988;6.020;2023-01-30T09:39:53;14.20;;;3.70;;
39066;SDS011;24821;51.988;6.020;2023-01-30T09:51:37;7.43;;;2.65;;
39066;SDS011;24821;51.988;6.020;2023-01-30T09:56:39;4.35;;;3.22;;
39066;SDS011;24821;51.988;6.020;2023-01-30T09:59:09;4.10;;;3.03;;
39066;SDS011;24821;51.988;6.020;2023-01-30T10:04:46;3.00;;;2.20;;
39066;SDS011;24821;51.988;6.020;2023-01-30T10:10:03;3.78;;;2.80;;
39066;SDS011;24821;51.988;6.020;2023-01-30T10:12:57;4.45;;;3.45;;
39066;SDS011;24821;51.988;6.020;2023-01-30T10:15:47;14.32;;;3.00;;
39066;SDS011;24821;51.988;6.020;2023-01-30T10:27:22;8.38;;;2.72;;
39066;SDS011;24821;51.988;6.020;2023-01-30T10:29:53;2.47;;;2.05;;
39066;SDS011;24821;51.988;6.020;2023-01-30T10:32:23;2.85;;;1.63;;
39066;SDS011;24821;51.988;6.020;2023-01-30T10:34:56;5.70;;;2.97;;
39066;SDS011;24821;51.988;6.020;2023-01-30T10:37:30;8.40;;;3.45;;
39066;SDS011;24821;51.988;6.020;2023-01-30T10:40:04;8.70;;;3.85;;
39066;SDS011;24821;51.988;6.020;2023-01-30T10:51:05;10.55;;;4.07;;
39066;SDS011;24821;51.988;6.020;2023-01-30T10:53:56;5.28;;;2.88;;
39066;SDS011;24821;51.988;6.020;2023-01-30T10:56:33;5.20;;;3.17;;
39066;SDS011;24821;51.988;6.020;2023-01-30T10:59:25;5.55;;;2.50;;
39066;SDS011;24821;51.988;6.020;2023-01-30T11:04:58;1.77;;;1.60;;
39066;SDS011;24821;51.988;6.020;2023-01-30T11:07:38;4.97;;;2.92;;
39066;SDS011;24821;51.988;6.020;2023-01-30T11:10:13;7.57;;;2.80;;
39066;SDS011;24821;51.988;6.020;2023-01-30T11:12:41;11.10;;;3.08;;
39066;SDS011;24821;51.988;6.020;2023-01-30T11:15:07;4.57;;;2.28;;
39066;SDS011;24821;51.988;6.020;2023-01-30T11:17:39;5.53;;;2.88;;
39066;SDS011;24821;51.988;6.020;2023-01-30T11:20:10;7.73;;;2.60;;
39066;SDS011;24821;51.988;6.020;2023-01-30T11:22:52;5.53;;;2.67;;
39066;SDS011;24821;51.988;6.020;2023-01-30T11:25:29;2.50;;;2.13;;
39066;SDS011;24821;51.988;6.020;2023-01-30T11:27:55;2.78;;;2.53;;
39066;SDS011;24821;51.988;6.020;2023-01-30T11:30:32;3.75;;;1.83;;
39066;SDS011;24821;51.988;6.020;2023-01-30T11:33:09;10.35;;;2.83;;
39066;SDS011;24821;51.988;6.020;2023-01-30T11:35:50;3.50;;;2.60;;
39066;SDS011;24821;51.988;6.020;2023-01-30T11:38:25;10.70;;;3.75;;
39066;SDS011;24821;51.988;6.020;2023-01-30T11:41:03;18.38;;;3.50;;
39066;SDS011;24821;51.988;6.020;2023-01-30T11:43:43;4.88;;;2.90;;
39066;SDS011;24821;51.988;6.020;2023-01-30T11:46:10;3.03;;;2.35;;
39066;SDS011;24821;51.988;6.020;2023-01-30T11:49:20;3.75;;;3.15;;
39066;SDS011;24821;51.988;6.020;2023-01-30T11:51:29;6.32;;;2.95;;
39066;SDS011;24821;51.988;6.020;2023-01-30T11:53:59;11.40;;;3.60;;
39066;SDS011;24821;51.988;6.020;2023-01-30T11:58:58;5.07;;;2.50;;
39066;SDS011;24821;51.988;6.020;2023-01-30T12:01:28;4.63;;;2.47;;
39066;SDS011;24821;51.988;6.020;2023-01-30T12:03:59;15.07;;;2.35;;
39066;SDS011;24821;51.988;6.020;2023-01-30T12:06:33;6.95;;;2.80;;
39066;SDS011;24821;51.988;6.020;2023-01-30T12:09:01;5.30;;;2.45;;
39066;SDS011;24821;51.988;6.020;2023-01-30T12:22:57;5.72;;;2.22;;
39066;SDS011;24821;51.988;6.020;2023-01-30T12:28:43;2.63;;;2.15;;
39066;SDS011;24821;51.988;6.020;2023-01-30T12:31:12;13.70;;;2.05;;
39066;SDS011;24821;51.988;6.020;2023-01-30T12:33:50;4.10;;;2.22;;
39066;SDS011;24821;51.988;6.020;2023-01-30T12:38:56;10.98;;;2.45;;
39066;SDS011;24821;51.988;6.020;2023-01-30T12:46:55;10.05;;;2.85;;
39066;SDS011;24821;51.988;6.020;2023-01-30T13:00:39;5.38;;;2.13;;
39066;SDS011;24821;51.988;6.020;2023-01-30T13:09:17;4.70;;;2.10;;
39066;SDS011;24821;51.988;6.020;2023-01-30T13:14:52;3.60;;;1.90;;
39066;SDS011;24821;51.988;6.020;2023-01-30T13:17:57;7.55;;;2.35;;
39066;SDS011;24821;51.988;6.020;2023-01-30T13:23:17;3.30;;;2.28;;
39066;SDS011;24821;51.988;6.020;2023-01-30T13:28:27;6.45;;;2.42;;
39066;SDS011;24821;51.988;6.020;2023-01-30T13:30:57;4.97;;;3.03;;
39066;SDS011;24821;51.988;6.020;2023-01-30T13:33:24;2.20;;;1.95;;
39066;SDS011;24821;51.988;6.020;2023-01-30T13:39:00;8.45;;;2.40;;
39066;SDS011;24821;51.988;6.020;2023-01-30T13:41:51;8.48;;;2.83;;
39066;SDS011;24821;51.988;6.020;2023-01-30T13:44:20;2.33;;;1.85;;
39066;SDS011;24821;51.988;6.020;2023-01-30T13:46:51;4.35;;;2.53;;
39066;SDS011;24821;51.988;6.020;2023-01-30T13:49:43;7.90;;;2.28;;
39066;SDS011;24821;51.988;6.020;2023-01-30T13:52:34;10.55;;;2.35;;
39066;SDS011;24821;51.988;6.020;2023-01-30T13:55:05;2.50;;;1.95;;
39066;SDS011;24821;51.988;6.020;2023-01-30T14:08:20;5.13;;;2.95;;
39066;SDS011;24821;51.988;6.020;2023-01-30T14:10:49;8.60;;;3.53;;
39066;SDS011;24821;51.988;6.020;2023-01-30T14:13:15;12.68;;;3.15;;
39066;SDS011;24821;51.988;6.020;2023-01-30T14:15:58;5.40;;;3.08;;
39066;SDS011;24821;51.988;6.020;2023-01-30T14:18:32;9.15;;;3.90;;
39066;SDS011;24821;51.988;6.020;2023-01-30T14:21:21;5.57;;;2.42;;
39066;SDS011;24821;51.988;6.020;2023-01-30T14:23:55;2.60;;;2.38;;
39066;SDS011;24821;51.988;6.020;2023-01-30T14:26:58;12.73;;;2.90;;
39066;SDS011;24821;51.988;6.020;2023-01-30T14:32:02;3.38;;;2.22;;
39066;SDS011;24821;51.988;6.020;2023-01-30T14:34:43;2.97;;;2.28;;
39066;SDS011;24821;51.988;6.020;2023-01-30T14:39:59;4.55;;;2.83;;
39066;SDS011;24821;51.988;6.020;2023-01-30T14:42:29;9.50;;;3.70;;
39066;SDS011;24821;51.988;6.020;2023-01-30T14:47:38;9.98;;;3.08;;
39066;SDS011;24821;51.988;6.020;2023-01-30T14:50:12;7.63;;;2.55;;
39066;SDS011;24821;51.988;6.020;2023-01-30T14:52:42;2.75;;;1.85;;
39066;SDS011;24821;51.988;6.020;2023-01-30T14:55:15;4.72;;;2.92;;
39066;SDS011;24821;51.988;6.020;2023-01-30T14:57:48;12.75;;;2.10;;
39066;SDS011;24821;51.988;6.020;2023-01-30T15:00:39;12.05;;;3.88;;
39066;SDS011;24821;51.988;6.020;2023-01-30T15:03:08;6.75;;;2.22;;
39066;SDS011;24821;51.988;6.020;2023-01-30T15:05:42;10.90;;;2.25;;
39066;SDS011;24821;51.988;6.020;2023-01-30T15:08:12;9.13;;;3.03;;
39066;SDS011;24821;51.988;6.020;2023-01-30T15:10:56;7.43;;;3.50;;
39066;SDS011;24821;51.988;6.020;2023-01-30T15:13:32;9.80;;;3.15;;
39066;SDS011;24821;51.988;6.020;2023-01-30T15:16:06;5.85;;;2.33;;
39066;SDS011;24821;51.988;6.020;2023-01-30T15:21:34;7.43;;;3.53;;
39066;SDS011;24821;51.988;6.020;2023-01-30T15:32:00;7.25;;;2.88;;
39066;SDS011;24821;51.988;6.020;2023-01-30T15:34:46;5.30;;;2.85;;
39066;SDS011;24821;51.988;6.020;2023-01-30T15:42:42;5.70;;;2.63;;
39066;SDS011;24821;51.988;6.020;2023-01-30T15:45:11;3.47;;;3.03;;
39066;SDS011;24821;51.988;6.020;2023-01-30T15:47:54;6.30;;;2.63;;
39066;SDS011;24821;51.988;6.020;2023-01-30T15:50:53;3.13;;;2.85;;
39066;SDS011;24821;51.988;6.020;2023-01-30T15:53:26;7.22;;;2.88;;
39066;SDS011;24821;51.988;6.020;2023-01-30T15:55:55;2.33;;;2.13;;
39066;SDS011;24821;51.988;6.020;2023-01-30T15:58:24;9.73;;;3.15;;
39066;SDS011;24821;51.988;6.020;2023-01-30T16:00:53;4.63;;;2.95;;
39066;SDS011;24821;51.988;6.020;2023-01-30T16:03:29;20.00;;;9.20;;
39066;SDS011;24821;51.988;6.020;2023-01-30T16:05:58;5.32;;;4.63;;
39066;SDS011;24821;51.988;6.020;2023-01-30T16:08:28;4.63;;;2.95;;
39066;SDS011;24821;51.988;6.020;2023-01-30T16:10:55;7.43;;;3.15;;
39066;SDS011;24821;51.988;6.020;2023-01-30T16:13:21;9.32;;;3.03;;
39066;SDS011;24821;51.988;6.020;2023-01-30T16:18:30;6.63;;;2.67;;
39066;SDS011;24821;51.988;6.020;2023-01-30T16:21:02;2.65;;;2.45;;
39066;SDS011;24821;51.988;6.020;2023-01-30T16:26:29;18.52;;;2.78;;
39066;SDS011;24821;51.988;6.020;2023-01-30T16:29:00;12.20;;;2.58;;
39066;SDS011;24821;51.988;6.020;2023-01-30T16:31:38;4.10;;;2.92;;
39066;SDS011;24821;51.988;6.020;2023-01-30T16:34:05;7.95;;;2.97;;
39066;SDS011;24821;51.988;6.020;2023-01-30T16:36:41;11.00;;;2.65;;
39066;SDS011;24821;51.988;6.020;2023-01-30T16:41:54;6.40;;;3.05;;
39066;SDS011;24821;51.988;6.020;2023-01-30T16:44:22;7.20;;;4.63;;
39066;SDS011;24821;51.988;6.020;2023-01-30T16:52:11;7.80;;;2.75;;
39066;SDS011;24821;51.988;6.020;2023-01-30T16:54:50;9.15;;;3.13;;
39066;SDS011;24821;51.988;6.020;2023-01-30T16:57:40;5.70;;;3.13;;
39066;SDS011;24821;51.988;6.020;2023-01-30T17:02:53;5.85;;;3.70;;
39066;SDS011;24821;51.988;6.020;2023-01-30T17:05:25;5.40;;;3.00;;
39066;SDS011;24821;51.988;6.020;2023-01-30T17:07:53;5.75;;;2.55;;
39066;SDS011;24821;51.988;6.020;2023-01-30T17:12:56;6.40;;;3.38;;
39066;SDS011;24821;51.988;6.020;2023-01-30T17:15:41;9.05;;;2.85;;
39066;SDS011;24821;51.988;6.020;2023-01-30T17:18:07;11.10;;;3.47;;
39066;SDS011;24821;51.988;6.020;2023-01-30T17:20:37;7.72;;;2.92;;
39066;SDS011;24821;51.988;6.020;2023-01-30T17:23:06;3.95;;;2.70;;
39066;SDS011;24821;51.988;6.020;2023-01-30T17:25:40;7.72;;;3.10;;
39066;SDS011;24821;51.988;6.020;2023-01-30T17:28:07;11.10;;;3.65;;
39066;SDS011;24821;51.988;6.020;2023-01-30T17:30:41;11.38;;;3.47;;
39066;SDS011;24821;51.988;6.020;2023-01-30T17:33:07;6.38;;;3.63;;
39066;SDS011;24821;51.988;6.020;2023-01-30T17:35:35;4.72;;;3.10;;
39066;SDS011;24821;51.988;6.020;2023-01-30T17:38:01;14.63;;;2.95;;
39066;SDS011;24821;51.988;6.020;2023-01-30T17:40:30;3.20;;;2.90;;
39066;SDS011;24821;51.988;6.020;2023-01-30T17:42:58;4.90;;;2.78;;
39066;SDS011;24821;51.988;6.020;2023-01-30T17:45:23;3.80;;;2.45;;
39066;SDS011;24821;51.988;6.020;2023-01-30T17:47:49;13.85;;;3.17;;
39066;SDS011;24821;51.988;6.020;2023-01-30T17:50:15;4.55;;;2.58;;
39066;SDS011;24821;51.988;6.020;2023-01-30T17:52:40;5.43;;;2.80;;
39066;SDS011;24821;51.988;6.020;2023-01-30T17:55:07;11.60;;;2.67;;
39066;SDS011;24821;51.988;6.020;2023-01-30T17:57:36;6.03;;;2.83;;
39066;SDS011;24821;51.988;6.020;2023-01-30T18:00:02;7.65;;;3.20;;
39066;SDS011;24821;51.988;6.020;2023-01-30T18:02:29;4.32;;;2.60;;